createdAt,value
2022-09-09T00:00:44.704Z,936
2022-09-09T00:01:45.024Z,935.96
2022-09-09T00:02:45.754Z,935.97
2022-09-09T00:03:45.987Z,935.99
2022-09-09T00:04:46.964Z,936
2022-09-09T00:05:47.167Z,936.03
2022-09-09T00:06:47.806Z,936.03
2022-09-09T00:07:48.256Z,936.04
2022-09-09T00:08:48.531Z,936.06
2022-09-09T00:09:49.453Z,936.05
2022-09-09T00:10:49.661Z,936.12
2022-09-09T00:11:50.559Z,936.14
2022-09-09T00:12:50.760Z,936.17
2022-09-09T00:13:51.374Z,936.2
2022-09-09T00:14:52.292Z,936.19
2022-09-09T00:15:53.300Z,936.22
2022-09-09T00:16:53.710Z,936.2
2022-09-09T00:17:54.135Z,936.24
2022-09-09T00:18:54.765Z,936.25
2022-09-09T00:19:55.690Z,936.27
2022-09-09T00:20:56.356Z,936.29
2022-09-09T00:21:56.996Z,936.3
2022-09-09T00:22:57.932Z,936.31
2022-09-09T00:23:58.461Z,936.28
2022-09-09T00:24:58.674Z,936.3
2022-09-09T00:25:59.605Z,936.27
2022-09-09T00:27:00.226Z,936.32
2022-09-09T00:28:00.954Z,936.35
2022-09-09T00:29:01.854Z,936.31
2022-09-09T00:30:02.749Z,936.39
2022-09-09T00:31:03.437Z,936.35
2022-09-09T00:32:04.017Z,936.37
2022-09-09T00:33:04.690Z,936.35
2022-09-09T00:34:05.163Z,936.32
2022-09-09T00:35:05.359Z,936.35
2022-09-09T00:36:06.299Z,936.33
2022-09-09T00:37:07.213Z,936.35
2022-09-09T00:38:07.648Z,936.33
2022-09-09T00:39:07.899Z,936.33
2022-09-09T00:40:08.202Z,936.3
2022-09-09T00:41:08.435Z,936.3
2022-09-09T00:42:08.628Z,936.31
2022-09-09T00:43:08.819Z,936.29
2022-09-09T00:44:09.729Z,936.27
2022-09-09T00:45:10.068Z,936.3
2022-09-09T00:46:10.579Z,936.26
2022-09-09T00:47:11.525Z,936.24
2022-09-09T00:48:12.301Z,936.23
2022-09-09T00:49:13.237Z,936.26
2022-09-09T00:50:13.732Z,936.22
2022-09-09T00:51:14.652Z,936.22
2022-09-09T00:52:15.567Z,936.22
2022-09-09T00:53:16.476Z,936.22
2022-09-09T00:54:17.433Z,936.18
2022-09-09T00:55:18.032Z,936.22
2022-09-09T00:56:18.664Z,936.17
2022-09-09T00:57:18.879Z,936.15
2022-09-09T00:58:19.579Z,936.13
2022-09-09T00:59:19.985Z,936.09
2022-09-09T01:00:20.201Z,936.09
2022-09-09T01:01:20.857Z,936.06
2022-09-09T01:02:21.842Z,936.05
2022-09-09T01:03:22.786Z,936.06
2022-09-09T01:04:22.970Z,936.07
2022-09-09T01:05:23.285Z,936.06
2022-09-09T01:06:23.926Z,936.08
2022-09-09T01:07:24.565Z,936.1
2022-09-09T01:08:24.853Z,936.12
2022-09-09T01:09:25.364Z,936.14
2022-09-09T01:10:26.003Z,936.11
2022-09-09T01:11:26.616Z,936.12
2022-09-09T01:12:27.215Z,936.12
2022-09-09T01:13:27.428Z,936.15
2022-09-09T01:14:28.052Z,936.14
2022-09-09T01:15:28.249Z,936.12
2022-09-09T01:16:28.508Z,936.11
2022-09-09T01:17:28.610Z,936.13
2022-09-09T01:18:29.195Z,936.14
2022-09-09T01:19:29.322Z,936.11
2022-09-09T01:20:29.820Z,936.06
2022-09-09T01:21:30.430Z,936.06
2022-09-09T01:22:31.053Z,936.05
2022-09-09T01:23:31.676Z,936.09
2022-09-09T01:24:31.942Z,936.09
2022-09-09T01:25:32.139Z,936.2
2022-09-09T01:26:33.075Z,936.08
2022-09-09T01:27:34.007Z,936.1
2022-09-09T01:28:35.127Z,936.12
2022-09-09T01:29:36.079Z,936.07
2022-09-09T01:30:36.362Z,936.08
2022-09-09T01:31:36.972Z,936.06
2022-09-09T01:32:37.161Z,936.05
2022-09-09T01:33:37.408Z,936.07
2022-09-09T01:34:37.614Z,936.06
2022-09-09T01:35:38.235Z,936.07
2022-09-09T01:36:39.192Z,936.07
2022-09-09T01:37:39.816Z,936.09
2022-09-09T01:38:40.388Z,936.06
2022-09-09T01:39:41.410Z,936.09
2022-09-09T01:40:42.363Z,936.11
2022-09-09T01:41:42.998Z,936.09
2022-09-09T01:42:43.611Z,936.07
2022-09-09T01:43:44.232Z,936.04
2022-09-09T01:44:45.171Z,936.07
2022-09-09T01:45:46.153Z,936.09
2022-09-09T01:46:47.187Z,936.05
2022-09-09T01:47:47.804Z,936.05
2022-09-09T01:48:48.684Z,936.04
2022-09-09T01:49:48.903Z,936.02
2022-09-09T01:50:49.798Z,936.05
2022-09-09T01:51:50.740Z,936.02
2022-09-09T01:52:51.656Z,936.04
2022-09-09T01:53:52.000Z,936.01
2022-09-09T01:54:52.533Z,936.03
2022-09-09T01:55:53.450Z,936.01
2022-09-09T01:56:53.958Z,935.99
2022-09-09T01:57:54.580Z,935.99
2022-09-09T01:58:54.997Z,935.97
2022-09-09T01:59:55.635Z,935.95
2022-09-09T02:00:56.050Z,935.91
2022-09-09T02:01:56.331Z,935.89
2022-09-09T02:02:57.262Z,935.84
2022-09-09T02:03:58.226Z,935.84
2022-09-09T02:04:58.409Z,935.83
2022-09-09T02:05:59.323Z,935.83
2022-09-09T02:06:59.816Z,935.82
2022-09-09T02:08:00.432Z,935.79
2022-09-09T02:09:01.460Z,935.82
2022-09-09T02:10:01.999Z,935.8
2022-09-09T02:11:02.919Z,935.73
2022-09-09T02:12:03.855Z,935.71
2022-09-09T02:13:04.051Z,935.75
2022-09-09T02:14:04.274Z,935.71
2022-09-09T02:15:04.476Z,935.74
2022-09-09T02:16:04.665Z,935.78
2022-09-09T02:17:05.566Z,935.78
2022-09-09T02:18:05.926Z,935.78
2022-09-09T02:19:07.044Z,935.77
2022-09-09T02:20:07.653Z,935.78
2022-09-09T02:21:08.267Z,935.77
2022-09-09T02:22:08.471Z,935.78
2022-09-09T02:23:09.435Z,935.73
2022-09-09T02:24:10.005Z,935.77
2022-09-09T02:25:10.973Z,935.73
2022-09-09T02:26:11.572Z,935.75
2022-09-09T02:27:11.802Z,935.74
2022-09-09T02:28:12.695Z,935.72
2022-09-09T02:29:13.413Z,935.71
2022-09-09T02:30:14.337Z,935.71
2022-09-09T02:31:14.471Z,935.72
2022-09-09T02:32:14.834Z,935.67
2022-09-09T02:33:15.175Z,935.67
2022-09-09T02:34:15.816Z,935.66
2022-09-09T02:35:16.736Z,935.65
2022-09-09T02:36:17.657Z,935.63
2022-09-09T02:37:18.272Z,935.64
2022-09-09T02:38:19.199Z,935.58
2022-09-09T02:39:19.595Z,935.61
2022-09-09T02:40:20.359Z,935.58
2022-09-09T02:41:21.075Z,935.58
2022-09-09T02:42:21.301Z,935.59
2022-09-09T02:43:21.943Z,935.61
2022-09-09T02:44:22.832Z,935.6
2022-09-09T02:45:23.456Z,935.59
2022-09-09T02:46:24.039Z,935.62
2022-09-09T02:47:24.660Z,935.61
2022-09-09T02:48:25.578Z,935.58
2022-09-09T02:49:25.828Z,935.56
2022-09-09T02:50:26.033Z,935.54
2022-09-09T02:51:26.248Z,935.57
2022-09-09T02:52:26.605Z,935.56
2022-09-09T02:53:27.519Z,935.56
2022-09-09T02:54:27.711Z,935.62
2022-09-09T02:55:27.991Z,935.62
2022-09-09T02:56:28.909Z,935.6
2022-09-09T02:57:29.137Z,935.6
2022-09-09T02:58:30.051Z,935.63
2022-09-09T02:59:30.742Z,935.62
2022-09-09T03:00:31.086Z,935.59
2022-09-09T03:01:31.395Z,935.61
2022-09-09T03:02:32.078Z,935.6
2022-09-09T03:03:32.972Z,935.6
2022-09-09T03:04:33.350Z,935.6
2022-09-09T03:05:34.271Z,935.56
2022-09-09T03:06:34.613Z,935.61
2022-09-09T03:07:35.256Z,935.57
2022-09-09T03:08:36.238Z,935.55
2022-09-09T03:09:36.933Z,935.58
2022-09-09T03:10:37.462Z,935.55
2022-09-09T03:11:38.078Z,935.56
2022-09-09T03:12:38.317Z,935.58
2022-09-09T03:13:38.659Z,935.51
2022-09-09T03:14:39.562Z,935.51
2022-09-09T03:15:39.779Z,935.51
2022-09-09T03:16:40.420Z,935.52
2022-09-09T03:17:41.004Z,935.53
2022-09-09T03:18:41.191Z,935.55
2022-09-09T03:19:41.644Z,935.53
2022-09-09T03:20:41.971Z,935.51
2022-09-09T03:21:42.590Z,935.54
2022-09-09T03:22:42.786Z,935.52
2022-09-09T03:23:43.411Z,935.54
2022-09-09T03:24:44.334Z,935.52
2022-09-09T03:25:44.584Z,935.56
2022-09-09T03:26:45.222Z,935.57
2022-09-09T03:27:45.443Z,935.61
2022-09-09T03:28:46.061Z,935.61
2022-09-09T03:29:46.552Z,935.65
2022-09-09T03:30:47.471Z,935.66
2022-09-09T03:31:47.781Z,935.66
2022-09-09T03:32:49.034Z,935.68
2022-09-09T03:33:49.416Z,935.71
2022-09-09T03:34:50.064Z,935.7
2022-09-09T03:35:50.249Z,935.67
2022-09-09T03:36:51.167Z,935.68
2022-09-09T03:37:51.512Z,935.69
2022-09-09T03:39:52.989Z,935.71
2022-09-09T03:40:53.889Z,935.66
2022-09-09T03:41:54.241Z,935.67
2022-09-09T03:42:54.453Z,935.63
2022-09-09T03:43:55.102Z,935.65
2022-09-09T03:44:55.436Z,935.62
2022-09-09T03:45:56.106Z,935.63
2022-09-09T03:46:57.159Z,935.63
2022-09-09T03:47:58.077Z,935.65
2022-09-09T03:48:58.707Z,935.68
2022-09-09T03:49:59.196Z,935.63
2022-09-09T03:51:00.103Z,935.63
2022-09-09T03:52:00.717Z,935.61
2022-09-09T03:53:01.730Z,935.58
2022-09-09T03:54:01.950Z,935.55
2022-09-09T03:55:02.276Z,935.55
2022-09-09T03:56:02.504Z,935.55
2022-09-09T03:57:02.829Z,935.6
2022-09-09T03:58:03.734Z,935.59
2022-09-09T03:59:04.638Z,935.55
2022-09-09T04:00:05.634Z,935.5
2022-09-09T04:01:06.598Z,935.51
2022-09-09T04:02:06.928Z,935.49
2022-09-09T04:03:07.954Z,935.49
2022-09-09T04:04:08.622Z,935.51
2022-09-09T04:05:08.989Z,935.47
2022-09-09T04:07:09.320Z,935.41
2022-09-09T04:08:10.240Z,935.46
2022-09-09T04:09:11.146Z,935.42
2022-09-09T04:10:12.156Z,935.42
2022-09-09T04:11:12.693Z,935.38
2022-09-09T04:12:13.587Z,935.37
2022-09-09T04:13:13.800Z,935.37
2022-09-09T04:14:13.998Z,935.35
2022-09-09T04:15:14.614Z,935.33
2022-09-09T04:16:15.156Z,935.35
2022-09-09T04:17:15.510Z,935.38
2022-09-09T04:18:19.451Z,935.36
2022-09-09T04:19:16.614Z,935.4
2022-09-09T04:20:17.458Z,935.38
2022-09-09T04:21:17.657Z,935.4
2022-09-09T04:22:18.001Z,935.42
2022-09-09T04:23:18.494Z,935.38
2022-09-09T04:24:18.691Z,935.41
2022-09-09T04:25:18.914Z,935.41
2022-09-09T04:26:19.445Z,935.4
2022-09-09T04:27:19.638Z,935.4
2022-09-09T04:28:20.560Z,935.45
2022-09-09T04:29:21.358Z,935.44
2022-09-09T04:30:22.041Z,935.4
2022-09-09T04:31:22.745Z,935.41
2022-09-09T04:32:23.304Z,935.42
2022-09-09T04:33:24.201Z,935.4
2022-09-09T04:34:24.832Z,935.44
2022-09-09T04:35:25.753Z,935.41
2022-09-09T04:36:26.665Z,935.41
2022-09-09T04:37:27.284Z,935.43
2022-09-09T04:38:27.498Z,935.39
2022-09-09T04:39:27.717Z,935.4
2022-09-09T04:40:28.595Z,935.37
2022-09-09T04:41:29.625Z,935.36
2022-09-09T04:42:30.114Z,935.36
2022-09-09T04:43:30.323Z,935.38
2022-09-09T04:44:31.237Z,935.37
2022-09-09T04:45:32.193Z,935.36
2022-09-09T04:46:33.135Z,935.4
2022-09-09T04:47:34.031Z,935.42
2022-09-09T04:48:34.565Z,935.39
2022-09-09T04:49:35.509Z,935.44
2022-09-09T04:50:35.965Z,935.42
2022-09-09T04:51:36.863Z,935.44
2022-09-09T04:52:37.780Z,935.47
2022-09-09T04:54:38.591Z,935.51
2022-09-09T04:58:41.096Z,935.47
2022-09-09T04:59:41.675Z,935.53
2022-09-09T05:00:42.404Z,935.48
2022-09-09T05:01:42.720Z,935.52
2022-09-09T05:02:43.394Z,935.51
2022-09-09T05:03:44.274Z,935.5
2022-09-09T05:04:44.773Z,935.48
2022-09-09T05:05:45.390Z,935.43
2022-09-09T05:06:46.012Z,935.48
2022-09-09T05:07:46.944Z,935.47
2022-09-09T05:08:47.835Z,935.48
2022-09-09T05:09:48.475Z,935.46
2022-09-09T05:10:49.470Z,935.46
2022-09-09T05:11:49.793Z,935.45
2022-09-09T05:12:50.417Z,935.52
2022-09-09T05:13:51.011Z,935.49
2022-09-09T05:14:51.259Z,935.51
2022-09-09T05:15:51.527Z,935.5
2022-09-09T05:16:52.328Z,935.53
2022-09-09T05:17:52.522Z,935.49
2022-09-09T05:18:53.441Z,935.51
2022-09-09T05:19:54.361Z,935.57
2022-09-09T05:20:54.594Z,935.52
2022-09-09T05:21:55.070Z,935.53
2022-09-09T05:22:55.992Z,935.56
2022-09-09T05:23:56.731Z,935.54
2022-09-09T05:24:57.672Z,935.51
2022-09-09T05:25:58.297Z,935.51
2022-09-09T05:26:58.853Z,935.55
2022-09-09T05:27:59.353Z,935.49
2022-09-09T05:28:59.971Z,935.56
2022-09-09T05:30:00.523Z,935.52
2022-09-09T05:31:00.821Z,935.55
2022-09-09T05:32:01.782Z,935.59
2022-09-09T05:33:02.655Z,935.59
2022-09-09T05:34:03.563Z,935.62
2022-09-09T05:35:04.188Z,935.62
2022-09-09T05:36:04.855Z,935.59
2022-09-09T05:37:05.109Z,935.55
2022-09-09T05:38:05.800Z,935.58
2022-09-09T05:39:06.126Z,935.59
2022-09-09T05:40:07.054Z,935.62
2022-09-09T05:41:07.762Z,935.64
2022-09-09T05:42:08.800Z,935.62
2022-09-09T05:43:09.005Z,935.62
2022-09-09T05:44:09.927Z,935.65
2022-09-09T05:45:10.515Z,935.65
2022-09-09T05:46:11.431Z,935.66
2022-09-09T05:47:11.854Z,935.65
2022-09-09T05:48:12.186Z,935.66
2022-09-09T05:49:12.795Z,935.64
2022-09-09T05:50:13.420Z,935.68
2022-09-09T05:51:14.525Z,935.71
2022-09-09T05:52:15.156Z,935.68
2022-09-09T05:53:15.652Z,935.66
2022-09-09T05:54:16.578Z,935.65
2022-09-09T05:55:17.510Z,935.66
2022-09-09T05:56:18.006Z,935.64
2022-09-09T05:57:18.914Z,935.6
2022-09-09T05:58:19.535Z,935.63
2022-09-09T05:59:20.224Z,935.58
2022-09-09T06:00:20.807Z,935.61
2022-09-09T06:01:21.229Z,935.58
2022-09-09T06:02:22.136Z,935.56
2022-09-09T06:03:22.234Z,935.56
2022-09-09T06:04:23.202Z,935.64
2022-09-09T06:05:23.844Z,935.67
2022-09-09T06:06:24.196Z,935.64
2022-09-09T06:07:25.097Z,935.69
2022-09-09T06:08:25.718Z,935.66
2022-09-09T06:09:26.089Z,935.65
2022-09-09T06:10:27.123Z,935.64
2022-09-09T06:11:27.916Z,935.61
2022-09-09T06:12:28.545Z,935.65
2022-09-09T06:13:29.165Z,935.69
2022-09-09T06:14:29.665Z,935.66
2022-09-09T06:15:30.228Z,935.65
2022-09-09T06:16:31.323Z,935.69
2022-09-09T06:17:32.172Z,935.71
2022-09-09T06:18:32.845Z,935.74
2022-09-09T06:19:33.254Z,935.75
2022-09-09T06:20:33.738Z,935.73
2022-09-09T06:21:34.459Z,935.76
2022-09-09T06:22:35.194Z,935.74
2022-09-09T06:23:36.112Z,935.78
2022-09-09T06:24:37.292Z,935.82
2022-09-09T06:25:37.486Z,935.8
2022-09-09T06:26:38.113Z,935.84
2022-09-09T06:27:38.325Z,935.84
2022-09-09T06:28:39.218Z,935.88
2022-09-09T06:29:40.133Z,935.88
2022-09-09T06:30:40.664Z,935.88
2022-09-09T06:31:41.239Z,935.87
2022-09-09T06:32:42.019Z,935.84
2022-09-09T06:33:42.938Z,935.84
2022-09-09T06:34:43.855Z,935.92
2022-09-09T06:35:44.473Z,935.95
2022-09-09T06:36:44.698Z,935.86
2022-09-09T06:37:45.610Z,935.89
2022-09-09T06:38:46.529Z,935.96
2022-09-09T06:39:47.498Z,935.91
2022-09-09T06:40:48.449Z,935.88
2022-09-09T06:41:49.423Z,935.88
2022-09-09T06:42:50.057Z,935.89
2022-09-09T06:43:50.967Z,935.9
2022-09-09T06:44:51.450Z,935.91
2022-09-09T06:45:52.024Z,935.96
2022-09-09T06:46:52.390Z,935.95
2022-09-09T06:47:52.835Z,936.01
2022-09-09T06:48:53.473Z,935.95
2022-09-09T06:49:54.392Z,935.99
2022-09-09T06:50:55.311Z,936.03
2022-09-09T06:51:56.403Z,936.07
2022-09-09T06:52:56.576Z,936.06
2022-09-09T06:53:56.911Z,936.08
2022-09-09T06:54:57.818Z,936.13
2022-09-09T06:55:58.770Z,936.18
2022-09-09T06:57:00.768Z,936.15
2022-09-09T06:58:00.054Z,936.21
2022-09-09T06:59:00.960Z,936.25
2022-09-09T07:00:01.156Z,936.27
2022-09-09T07:01:01.719Z,936.25
2022-09-09T07:02:02.605Z,936.31
2022-09-09T07:03:03.050Z,936.28
2022-09-09T07:04:03.389Z,936.27
2022-09-09T07:05:04.420Z,936.31
2022-09-09T07:06:05.112Z,936.33
2022-09-09T07:07:05.321Z,936.33
2022-09-09T07:08:05.519Z,936.31
2022-09-09T07:09:06.440Z,936.33
2022-09-09T07:10:07.486Z,936.28
2022-09-09T07:11:12.194Z,936.29
2022-09-09T07:12:08.703Z,936.3
2022-09-09T07:13:09.191Z,936.33
2022-09-09T07:14:09.825Z,936.38
2022-09-09T07:15:10.017Z,936.31
2022-09-09T07:16:10.623Z,936.31
2022-09-09T07:17:11.552Z,936.33
2022-09-09T07:18:12.171Z,936.36
2022-09-09T07:19:12.807Z,936.29
2022-09-09T07:20:13.418Z,936.31
2022-09-09T07:21:13.906Z,936.33
2022-09-09T07:22:14.097Z,936.37
2022-09-09T07:23:14.574Z,936.38
2022-09-09T07:24:15.642Z,936.44
2022-09-09T07:25:16.356Z,936.46
2022-09-09T07:26:16.990Z,936.51
2022-09-09T07:27:17.199Z,936.54
2022-09-09T07:28:17.393Z,936.6
2022-09-09T07:29:20.739Z,936.6
2022-09-09T07:30:21.966Z,936.64
2022-09-09T07:31:18.769Z,936.6
2022-09-09T07:32:19.708Z,936.6
2022-09-09T07:33:19.907Z,936.58
2022-09-09T07:34:20.224Z,936.56
2022-09-09T07:35:20.830Z,936.54
2022-09-09T07:36:21.465Z,936.53
2022-09-09T07:37:22.016Z,936.51
2022-09-09T07:38:22.207Z,936.55
2022-09-09T07:39:23.104Z,936.52
2022-09-09T07:40:23.839Z,936.54
2022-09-09T07:41:24.751Z,936.6
2022-09-09T07:42:25.878Z,936.63
2022-09-09T07:43:26.093Z,936.61
2022-09-09T07:44:27.000Z,936.64
2022-09-09T07:45:27.216Z,936.62
2022-09-09T07:46:28.217Z,936.61
2022-09-09T07:47:28.798Z,936.62
2022-09-09T07:48:29.064Z,936.61
2022-09-09T07:49:32.695Z,936.57
2022-09-09T07:50:30.761Z,936.57
2022-09-09T07:51:31.658Z,936.6
2022-09-09T07:52:32.548Z,936.56
2022-09-09T07:53:32.737Z,936.58
2022-09-09T07:54:33.399Z,936.57
2022-09-09T07:55:34.025Z,936.57
2022-09-09T07:56:34.517Z,936.59
2022-09-09T07:57:35.062Z,936.59
2022-09-09T07:58:38.369Z,936.62
2022-09-09T07:59:36.163Z,936.61
2022-09-09T08:00:36.388Z,936.62
2022-09-09T08:01:36.526Z,936.65
2022-09-09T08:02:36.838Z,936.66
2022-09-09T08:03:38.047Z,936.61
2022-09-09T08:04:38.778Z,936.62
2022-09-09T08:05:39.434Z,936.64
2022-09-09T08:06:40.066Z,936.62
2022-09-09T08:07:40.275Z,936.6
2022-09-09T08:08:40.473Z,936.64
2022-09-09T08:09:40.961Z,936.65
2022-09-09T08:10:41.901Z,936.65
2022-09-09T08:11:42.814Z,936.67
2022-09-09T08:12:56.224Z,936.68
2022-09-09T08:13:44.704Z,936.68
2022-09-09T08:14:45.239Z,936.71
2022-09-09T08:15:45.752Z,936.7
2022-09-09T08:16:46.149Z,936.69
2022-09-09T08:17:47.220Z,936.74
2022-09-09T08:18:47.409Z,936.76
2022-09-09T08:19:47.604Z,936.72
2022-09-09T08:20:47.845Z,936.79
2022-09-09T08:21:48.050Z,936.76
2022-09-09T08:22:49.077Z,936.79
2022-09-09T08:23:50.382Z,936.8
2022-09-09T08:24:49.995Z,936.84
2022-09-09T08:25:50.288Z,936.83
2022-09-09T08:26:50.898Z,936.86
2022-09-09T08:27:51.093Z,936.86
2022-09-09T08:28:51.703Z,936.89
2022-09-09T08:29:52.625Z,936.9
2022-09-09T08:30:53.292Z,936.85
2022-09-09T08:31:54.310Z,936.85
2022-09-09T08:32:54.782Z,936.84
2022-09-09T08:33:54.996Z,936.83
2022-09-09T08:35:01.029Z,936.8
2022-09-09T08:35:55.702Z,936.82
2022-09-09T08:36:56.314Z,936.8
2022-09-09T08:37:56.678Z,936.81
2022-09-09T08:38:57.168Z,936.79
2022-09-09T08:39:58.120Z,936.8
2022-09-09T08:40:58.537Z,936.79
2022-09-09T08:41:59.147Z,936.81
2022-09-09T08:42:59.855Z,936.82
2022-09-09T08:44:00.498Z,936.82
2022-09-09T08:45:00.723Z,936.84
2022-09-09T08:46:00.921Z,936.84
2022-09-09T08:47:01.465Z,936.82
2022-09-09T08:48:01.697Z,936.82
2022-09-09T08:49:02.613Z,936.79
2022-09-09T08:50:03.114Z,936.83
2022-09-09T08:51:03.351Z,936.85
2022-09-09T08:52:03.986Z,936.85
2022-09-09T08:53:04.727Z,936.88
2022-09-09T08:54:05.631Z,936.9
2022-09-09T08:55:06.188Z,936.91
2022-09-09T08:56:06.377Z,936.93
2022-09-09T08:57:06.560Z,936.91
2022-09-09T08:58:06.902Z,936.91
2022-09-09T08:59:07.400Z,936.97
2022-09-09T09:00:07.615Z,936.96
2022-09-09T09:01:08.106Z,936.97
2022-09-09T09:02:08.400Z,936.98
2022-09-09T09:03:09.028Z,936.99
2022-09-09T09:04:09.684Z,936.99
2022-09-09T09:05:09.767Z,936.9
2022-09-09T09:06:10.304Z,936.9
2022-09-09T09:07:10.939Z,936.89
2022-09-09T09:08:11.202Z,936.94
2022-09-09T09:09:11.681Z,936.93
2022-09-09T09:10:30.906Z,936.9
2022-09-09T09:11:13.197Z,936.92
2022-09-09T09:12:13.676Z,936.9
2022-09-09T09:13:14.088Z,936.91
2022-09-09T09:14:15.112Z,936.92
2022-09-09T09:15:15.271Z,936.89
2022-09-09T09:16:15.675Z,936.93
2022-09-09T09:17:16.013Z,936.93
2022-09-09T09:18:16.242Z,936.9
2022-09-09T09:19:17.183Z,936.89
2022-09-09T09:20:18.082Z,936.9
2022-09-09T09:21:18.291Z,936.93
2022-09-09T09:22:18.909Z,936.9
2022-09-09T09:23:19.973Z,936.9
2022-09-09T09:24:21.940Z,936.91
2022-09-09T09:25:21.021Z,936.88
2022-09-09T09:26:21.744Z,936.89
2022-09-09T09:27:21.962Z,936.87
2022-09-09T09:28:22.364Z,936.84
2022-09-09T09:29:23.364Z,936.78
2022-09-09T09:30:29.736Z,936.73
2022-09-09T09:31:25.361Z,936.71
2022-09-09T09:32:25.738Z,936.74
2022-09-09T09:33:26.202Z,936.78
2022-09-09T09:34:27.103Z,936.8
2022-09-09T09:35:27.352Z,936.84
2022-09-09T09:36:28.186Z,936.86
2022-09-09T09:37:28.431Z,936.89
2022-09-09T09:40:05.767Z,936.95
2022-09-09T09:41:06.104Z,936.96
2022-09-09T09:42:06.837Z,936.88
2022-09-09T09:43:07.837Z,936.9
2022-09-09T09:44:08.158Z,936.86
2022-09-09T09:45:08.631Z,936.83
2022-09-09T09:46:17.409Z,936.85
2022-09-09T09:47:09.847Z,936.83
2022-09-09T09:48:13.798Z,936.79
2022-09-09T09:49:11.330Z,936.81
2022-09-09T09:50:12.305Z,936.77
2022-09-09T09:51:13.214Z,936.79
2022-09-09T09:52:14.130Z,936.77
2022-09-09T09:53:14.743Z,936.74
2022-09-09T09:54:15.634Z,936.78
2022-09-09T09:55:15.896Z,936.77
2022-09-09T09:56:16.085Z,936.81
2022-09-09T09:57:17.050Z,936.83
2022-09-09T09:58:18.555Z,936.85
2022-09-09T09:59:23.633Z,936.86
2022-09-09T10:00:19.113Z,936.88
2022-09-09T10:01:20.062Z,936.89
2022-09-09T10:02:20.353Z,936.93
2022-09-09T10:03:20.992Z,936.94
2022-09-09T10:04:21.606Z,936.99
2022-09-09T10:05:26.466Z,937.03
2022-09-09T10:06:22.474Z,937.02
2022-09-09T10:07:22.684Z,936.99
2022-09-09T10:08:23.596Z,936.99
2022-09-09T10:09:24.620Z,937.02
2022-09-09T10:10:24.856Z,936.99
2022-09-09T10:11:25.647Z,936.96
2022-09-09T10:12:26.274Z,937
2022-09-09T10:13:26.818Z,936.96
2022-09-09T10:14:27.815Z,937.02
2022-09-09T10:15:28.138Z,937.01
2022-09-09T10:16:29.224Z,937.05
2022-09-09T10:17:30.141Z,937
2022-09-09T10:18:30.768Z,936.99
2022-09-09T10:19:31.368Z,936.98
2022-09-09T10:20:31.983Z,937.02
2022-09-09T10:21:33.303Z,936.98
2022-09-09T10:22:32.646Z,937
2022-09-09T10:23:32.841Z,936.98
2022-09-09T10:24:33.562Z,936.99
2022-09-09T10:25:34.384Z,937
2022-09-09T10:26:34.870Z,936.98
2022-09-09T10:27:35.904Z,937.01
2022-09-09T10:28:36.267Z,937.01
2022-09-09T10:29:36.577Z,937.05
2022-09-09T10:30:36.896Z,937.01
2022-09-09T10:31:37.414Z,937.08
2022-09-09T10:32:37.609Z,937.08
2022-09-09T10:33:38.047Z,937.07
2022-09-09T10:34:38.408Z,937.09
2022-09-09T10:35:38.719Z,937.06
2022-09-09T10:36:39.625Z,937.06
2022-09-09T10:37:40.116Z,937.06
2022-09-09T10:38:41.014Z,937
2022-09-09T10:39:42.864Z,937.03
2022-09-09T10:40:42.162Z,937.03
2022-09-09T10:41:43.064Z,937.03
2022-09-09T10:42:43.250Z,937.04
2022-09-09T10:43:43.479Z,937.05
2022-09-09T10:44:43.767Z,937
2022-09-09T10:45:44.060Z,937.03
2022-09-09T10:46:45.001Z,936.99
2022-09-09T10:47:45.772Z,937.06
2022-09-09T10:48:46.391Z,937.05
2022-09-09T10:49:46.922Z,937.08
2022-09-09T10:51:09.427Z,937.07
2022-09-09T10:51:48.063Z,937.07
2022-09-09T10:52:48.685Z,937.11
2022-09-09T10:53:49.355Z,937.13
2022-09-09T10:54:49.569Z,937.11
2022-09-09T10:55:50.599Z,937.11
2022-09-09T10:56:51.519Z,937.1
2022-09-09T10:57:51.711Z,937.11
2022-09-09T10:58:52.342Z,937.11
2022-09-09T10:59:52.982Z,937.12
2022-09-09T11:00:57.500Z,937.12
2022-09-09T11:01:54.017Z,937.1
2022-09-09T11:02:54.236Z,937.09
2022-09-09T11:03:54.734Z,937.06
2022-09-09T11:04:55.334Z,937.08
2022-09-09T11:05:55.635Z,937.07
2022-09-09T11:06:56.056Z,937.08
2022-09-09T11:07:56.692Z,937.07
2022-09-09T11:08:57.719Z,937.08
2022-09-09T11:09:58.628Z,937.16
2022-09-09T11:10:58.783Z,937.19
2022-09-09T11:11:59.689Z,937.18
2022-09-09T11:13:00.184Z,937.14
2022-09-09T11:14:00.393Z,937.09
2022-09-09T11:15:01.322Z,937.1
2022-09-09T11:16:01.641Z,937.06
2022-09-09T11:17:02.776Z,937.13
2022-09-09T11:18:03.740Z,937.14
2022-09-09T11:19:04.368Z,937.16
2022-09-09T11:20:04.973Z,937.17
2022-09-09T11:21:05.598Z,937.16
2022-09-09T11:22:06.492Z,937.13
2022-09-09T11:23:06.660Z,937.13
2022-09-09T11:24:07.421Z,937.14
2022-09-09T11:25:07.644Z,937.21
2022-09-09T11:26:08.356Z,937.22
2022-09-09T11:27:08.734Z,937.19
2022-09-09T11:28:09.169Z,937.25
2022-09-09T11:29:09.523Z,937.23
2022-09-09T11:30:10.524Z,937.21
2022-09-09T11:31:10.751Z,937.18
2022-09-09T11:32:11.502Z,937.19
2022-09-09T11:33:12.562Z,937.2
2022-09-09T11:34:13.216Z,937.19
2022-09-09T11:35:13.925Z,937.22
2022-09-09T11:36:14.644Z,937.23
2022-09-09T11:37:14.866Z,937.24
2022-09-09T11:38:15.216Z,937.24
2022-09-09T11:39:15.712Z,937.24
2022-09-09T11:40:16.714Z,937.26
2022-09-09T11:41:20.877Z,937.3
2022-09-09T11:42:17.706Z,937.21
2022-09-09T11:43:18.390Z,937.24
2022-09-09T11:44:18.587Z,937.25
2022-09-09T11:45:18.808Z,937.23
2022-09-09T11:46:19.728Z,937.24
2022-09-09T11:47:20.209Z,937.23
2022-09-09T11:48:21.156Z,937.23
2022-09-09T11:49:22.115Z,937.23
2022-09-09T11:50:22.364Z,937.23
2022-09-09T11:51:23.284Z,937.23
2022-09-09T11:52:23.775Z,937.2
2022-09-09T11:53:24.416Z,937.19
2022-09-09T11:54:25.377Z,937.25
2022-09-09T11:55:25.992Z,937.27
2022-09-09T11:56:27.069Z,937.28
2022-09-09T11:57:27.675Z,937.27
2022-09-09T11:58:28.321Z,937.29
2022-09-09T11:59:28.650Z,937.29
2022-09-09T12:00:29.147Z,937.29
2022-09-09T12:01:29.743Z,937.29
2022-09-09T12:02:30.686Z,937.32
2022-09-09T12:03:30.860Z,937.3
2022-09-09T12:04:31.706Z,937.32
2022-09-09T12:05:32.601Z,937.3
2022-09-09T12:06:33.092Z,937.33
2022-09-09T12:07:34.031Z,937.32
2022-09-09T12:08:34.686Z,937.29
2022-09-09T12:09:35.580Z,937.31
2022-09-09T12:10:36.476Z,937.3
2022-09-09T12:11:37.104Z,937.31
2022-09-09T12:12:40.358Z,937.29
2022-09-09T12:13:37.928Z,937.27
2022-09-09T12:14:38.847Z,937.3
2022-09-09T12:15:39.467Z,937.3
2022-09-09T12:16:39.944Z,937.28
2022-09-09T12:17:40.186Z,937.29
2022-09-09T12:18:41.263Z,937.28
2022-09-09T12:19:41.784Z,937.31
2022-09-09T12:20:42.054Z,937.34
2022-09-09T12:21:42.269Z,937.35
2022-09-09T12:22:43.181Z,937.33
2022-09-09T12:23:43.807Z,937.31
2022-09-09T12:24:44.902Z,937.31
2022-09-09T12:25:45.816Z,937.31
2022-09-09T12:26:46.611Z,937.3
2022-09-09T12:27:46.938Z,937.25
2022-09-09T12:28:47.564Z,937.25
2022-09-09T12:29:48.050Z,937.23
2022-09-09T12:30:48.338Z,937.23
2022-09-09T12:31:48.825Z,937.2
2022-09-09T12:32:49.786Z,937.2
2022-09-09T12:33:50.685Z,937.19
2022-09-09T12:34:50.925Z,937.18
2022-09-09T12:35:51.170Z,937.22
2022-09-09T12:36:53.810Z,937.19
2022-09-09T12:37:52.552Z,937.16
2022-09-09T12:38:53.226Z,937.21
2022-09-09T12:39:53.645Z,937.18
2022-09-09T12:40:53.973Z,937.17
2022-09-09T12:41:54.656Z,937.17
2022-09-09T12:42:54.992Z,937.11
2022-09-09T12:43:55.910Z,937.12
2022-09-09T12:44:56.546Z,937.06
2022-09-09T12:45:57.265Z,937.01
2022-09-09T12:46:57.595Z,937.06